NCAR-RAP Real-Time Weather Data

Output produced by METARs form (26 May 2022  07:59 UTC)
found at http://weather.rap.ucar.edu/surface/
 
KMCI 260753Z 14005KT 10SM OVC022 14/12 A2967 RMK AO2 SLP042 T01390117
KMCI 260653Z 14005KT 10SM OVC018 14/12 A2967 RMK AO2 SLP043 T01440117
KMCI 260613Z 17004KT 10SM BKN017 14/12 A2967 RMK AO2 T01390122
KMCI 260553Z 16004KT 10SM SCT150 13/11 A2967 RMK AO2 SLP041 T01280111 10178 20128 402170128 50000
KMCI 260453Z 15008KT 10SM SCT150 14/13 A2967 RMK AO2 SLP043 T01440128
KMCI 260353Z 16009KT 10SM SCT015 BKN044 15/13 A2967 RMK AO2 SLP042 T01500133
KMCI 260253Z 16009KT 10SM OVC049 16/14 A2967 RMK AO2 SLP039 T01610139 51027
KMCI 260153Z 20009KT 10SM BKN012 BKN017 OVC022 16/14 A2965 RMK AO2 SLP034 T01610144
KMCI 260053Z 22009KT 10SM BKN011 BKN021 BKN041 17/14 A2962 RMK AO2 SLP023 T01670144
KMCI 260047Z 23008KT 10SM BKN011 BKN021 OVC041 17/14 A2962 RMK AO2
KMCI 260012Z 24007KT 10SM FEW010 SCT050 BKN060 17/15 A2960 RMK AO2 T01720150
KMCI 252353Z 23009KT 10SM BKN010 BKN200 18/15 A2958 RMK AO2 SLP011 60102 T01780150 10217 20178 52015
KMCI 252253Z 23011KT 10SM SCT014 19/16 A2957 RMK AO2 PK WND 19026/2214 SLP006 T01940156
KMCI 252222Z 21016G26KT 10SM SCT014 19/16 A2957 RMK AO2 PK WND 19026/2214 T01940161
KMCI 252153Z 20015G23KT 10SM SCT010 BKN014 BKN023 20/17 A2955 RMK AO2 RAE03 SLP000 P0002 T02000172
KMCI 252141Z 19015KT 10SM SCT010 BKN014 BKN023 21/18 A2954 RMK AO2 RAE03 P0002 T02060178
KMCI 252122Z 19012G18KT 10SM BKN009 BKN037 BKN046 21/18 A2954 RMK AO2 RAE03 P0002 T02110183
KMCI 252105Z 19010KT 9SM SCT006 BKN012 BKN037 21/19 A2953 RMK AO2 RAE03 P0002 T02060189
KMCI 252053Z 20009KT 2SM R19R/5000VP6000FT RA BR BKN009 BKN016 OVC025 20/19 A2954 RMK AO2 SLP995 P0062 60100 T02000189 56013
KMCI 252049Z 20009KT 2SM -RA BR BKN009 BKN014 OVC022 20/19 A2954 RMK AO2 P0059
KMCI 252047Z 19009KT 2SM -RA BR FEW009 BKN016 OVC025 20/19 A2954 RMK AO2 P0059
KMCI 252041Z 19007KT 2SM -RA BR BKN013 BKN019 OVC023 20/19 A2954 RMK AO2 P0058 T02000189
KMCI 252022Z 16006KT 4SM R19R/3000VP6000FT -RA BR BKN007 BKN013 OVC023 20/19 A2953 RMK AO2 P0058 T02000189
KMCI 251958Z 10007KT 3/4SM R19R/3500VP6000FT +RA BR BKN007 OVC014 19/18 A2955 RMK AO2 TWR VIS 1 1/2 P0013 T01940183
KMCI 251953Z 07006KT 1SM R19R/3500V6000FT +RA BR SCT007 OVC011 19/18 A2955 RMK AO2 TWR VIS 1 1/2 SLP999 P0034 T01890178
KMCI 251947Z 09006KT 1 1/2SM R19R/3500VP6000FT +RA BR SCT007 OVC011 19/18 A2956 RMK AO2 P0018
KMCI 251929Z 06011KT 1 1/2SM R19R/5500VP6000FT -RA BR BKN007 BKN011 OVC060 19/18 A2955 RMK AO2 SFC VIS 2 1/2 P0005 T01940178
KMCI 251853Z 08012KT 3SM RA BR BKN007 BKN014 OVC055 19/18 A2958 RMK AO2 SFC VIS 4 RAE16B40 SLP009 P0004 T01890178
KMCI 251822Z 09009KT 3SM BR OVC008 19/18 A2960 RMK AO2 SFC VIS 5 RAE16 P0000 T01890178
KMCI 251753Z 07011KT 1 1/2SM -RA BR BKN005 OVC010 18/17 A2962 RMK AO2 SFC VIS 2 1/2 SLP022 P0001 60006 T01830172 10189 20172 58025
KMCI 251734Z 06012KT 1 1/2SM R19R/6000VP6000FT -RA BR OVC006 18/17 A2962 RMK AO2 SFC VIS 2 P0001 T01830172
KMCI 251653Z 07010KT 3SM -RA BR BKN006 BKN011 OVC030 19/17 A2964 RMK AO2 SFC VIS 4 SLP031 P0002 T01890172
KMCI 251619Z 07010KT 2SM -RA BR BKN005 BKN012 OVC042 18/17 A2966 RMK AO2 P0002 T01830167
KMCI 251613Z 07010KT 1 3/4SM RA BR BKN006 BKN012 OVC022 18/17 A2966 RMK AO2 TWR VIS 2 P0001 T01780167
KMCI 251553Z 07008KT 2SM -RA BR SCT006 BKN016 OVC035 18/17 A2967 RMK AO2 SFC VIS 3 RAE13B28 SLP041 P0001 T01780167
KMCI 251545Z 07010KT 2SM -RA BR SCT006 BKN016 OVC035 18/17 A2967 RMK AO2 SFC VIS 3 RAE13B28 P0001 T01830167
KMCI 251525Z 07010KT 5SM BR SCT006 BKN016 OVC044 18/17 A2968 RMK AO2 RAE13 P0000 T01830167
KMCI 251502Z 07006KT 2 1/2SM -RA BR SCT006 BKN016 OVC050 18/17 A2969 RMK AO2 TWR VIS 3 P0000 T01830167
KMCI 251453Z 08006KT 3SM -RA BR SCT006 OVC010 18/17 A2969 RMK AO2 RAB27 SLP048 P0001 60002 T01830167 56013
KMCI 251353Z 08005KT 7SM SCT006 OVC010 18/17 A2970 RMK AO2 RAE05 SLP051 P0000 T01830167
KMCI 251253Z 07006KT 5SM -RA BR FEW007 FEW024 OVC080 18/17 A2971 RMK AO2 SLP055 P0001 T01780167
KMCI 251205Z 10005KT 3SM -RA BR FEW008 BKN027 OVC043 17/16 A2973 RMK AO2 P0001 T01720161
KMCI 251155Z 10005KT 2SM -RA BR SCT006 BKN024 OVC100 17/16 A2973 RMK AO2 SFC VIS 3 P0000 T01720161
KMCI 251153Z 10004KT 1 1/2SM -RA BR BKN006 BKN040 OVC100 17/16 A2973 RMK AO2 TWR VIS 2 RAB16E36B38 SLP063 P0000 60002 70114 T01720161 10172 20167 53004
KMCI 251136Z 12005KT 1 1/2SM BR OVC005 17/16 A2973 RMK AO2 TWR VIS 2 RAB16E36 P0000 T01720161
KMCI 251120Z 13005KT 2SM -RA BR BKN005 OVC016 17/16 A2973 RMK AO2 RAB16 P0000 T01720161 $
KMCI 251053Z 13006KT 5SM BR BKN005 OVC014 17/16 A2973 RMK AO2 DZE08 SLP063 P0000 T01720161 $
KMCI 251040Z 13006KT 5SM BR OVC005 17/16 A2973 RMK AO2 DZE08 P0000 T01720161 $
KMCI 251015Z 14005KT 5SM BR BKN004 OVC014 17/16 A2973 RMK AO2 DZE08 P0000 T01720161 $
KMCI 250953Z 10007KT 2SM -DZ BR OVC003 17/16 A2971 RMK AO2 DZB31 SLP057 P0001 T01670161 $
KMCI 250946Z 10008KT 2SM -DZ BR OVC003 17/16 A2971 RMK AO2 DZB31 P0001 T01670161 $
KMCI 250853Z 08006KT 1SM R19R/P6000FT BR OVC002 17/16 A2972 RMK AO2 RAE24 SLP058 P0000 60001 T01670161 58018 $
KMCI 250753Z 08004KT 1 3/4SM -RA BR OVC003 17/16 A2974 RMK AO2 SLP066 P0001 T01670161 $
KMCI 250717Z 10005KT 1 1/2SM -RA BR OVC003 17/16 A2976 RMK AO2 P0000 T01670161 $
KMCI 250653Z 11007KT 4SM -RA BR OVC003 17/16 A2976 RMK AO2 SLP073 P0000 T01670156 $
KMCI 250553Z 11006KT 3SM -RA BR OVC003 17/16 A2977 RMK AO2 DZE35RAB35 SLP077 P0002 60022 T01670156 10167 20139 401670122 57012 $
KMCI 250536Z 12005KT 2SM -RA BR OVC003 17/16 A2978 RMK AO2 DZE35RAB35 P0001 T01670156 $
KMCI 250453Z 12007KT 4SM -DZ BR OVC004 16/16 A2979 RMK AO2 SLP082 P0000 T01610156 $
KMCI 250424Z 10008KT 4SM -DZ BR OVC004 16/15 A2979 RMK AO2 P0000 T01610150 $
KMCI 250353Z 10009KT 4SM -DZ BR OVC005 16/15 A2980 RMK AO2 RAE25DZB25 SLP085 P0002 T01610150 $
KMCI 250342Z 10008KT 5SM -DZ BR OVC005 16/15 A2980 RMK AO2 RAE25DZB25 P0002 T01610150 $
KMCI 250328Z 10010KT 2SM -DZ BR OVC005 16/15 A2981 RMK AO2 RAE25DZB25 P0002 T01610150 $
KMCI 250253Z 10008KT 1 1/2SM -RA BR OVC005 16/15 A2981 RMK AO2 RAE20B50DZB29E50 SLP090 P0000 60018 T01610150 51001 $
KMCI 250153Z 08011KT 5SM -RA BR OVC007 16/14 A2980 RMK AO2 SLP089 P0003 T01560144 $
KMCI 250133Z 08007KT 4SM -RA BR SCT004 OVC010 15/14 A2979 RMK AO2 P0003 T01500139 $
KMCI 250115Z 07008KT 2SM -RA BR BKN005 BKN010 OVC022 14/14 A2981 RMK AO2 TWR VIS 3 P0002 T01440139 $
KMCI 250102Z 07007KT 1 1/2SM -RA BR BKN007 BKN017 OVC022 14/13 A2981 RMK AO2 TWR VIS 3 P0001 T01440133 $
KMCI 250053Z 07009KT 2SM -RA BR BKN008 BKN017 OVC022 14/13 A2981 RMK AO2 TWR VIS 3 SLP092 P0015 T01440133 $
KMCI 250029Z 08008KT 3SM -RA BKN008 BKN018 OVC025 14/13 A2981 RMK AO2 SFC VIS 7 P0009 T01440133 $
KMCI 250011Z 07010KT 3SM R19R/3500VP6000FT -RA BR FEW018 BKN028 OVC070 14/13 A2981 RMK AO2 P0009 T01390128 $
KMCI 242353Z 07013G20KT 1 3/4SM R19R/5500VP6000FT RA BR FEW005 BKN044 OVC070 14/13 A2981 RMK AO2 TWR VIS 3 SLP090 P0015 60065 T01390128 10139 20122 58011 $
KMCI 242341Z 07013KT 2SM +RA BR SCT005 BKN030 OVC060 14/13 A2980 RMK AO2 TWR VIS 3 P0010 T01390128 $
KMCI 242335Z 06013KT 1 3/4SM RA BR SCT004 BKN028 OVC060 13/13 A2981 RMK AO2 TWR VIS 3 P0007 T01330128 $
KMCI 242316Z 06009KT 3SM RA BR FEW004 BKN030 OVC045 13/12 A2982 RMK AO2 P0003 T01330122 $
KMCI 242253Z 05011KT 3SM -RA BR BKN036 BKN042 OVC050 13/12 A2983 RMK AO2 SFC VIS 4 RAB04 SLP098 P0007 T01330122 $
KMCI 242239Z 06013KT 1 1/2SM R19R/5000VP6000FT RA BR FEW010 BKN036 OVC060 13/12 A2984 RMK AO2 TWR VIS 3 RAB04 P0004 T01330122 $
KMCI 242230Z 07010KT 2SM RA BR SCT010 BKN020 OVC036 14/12 A2984 RMK AO2 TWR VIS 3 RAB04 P0001 T01390122 $
KMCI 242153Z 08013KT 10SM BKN010 OVC032 13/12 A2985 RMK AO2 PK WND 08026/2127 RAE33 SLP104 P0005 T01330117 $
KMCI 242142Z 08012KT 10SM BKN010 BKN029 OVC036 13/12 A2985 RMK AO2 PK WND 08026/2127 RAE33 P0005 T01330117 $
KMCI 242108Z 08013G23KT 3SM -RA BR SCT007 BKN046 OVC060 13/12 A2984 RMK AO2 SFC VIS 6 P0001 T01280117 $
KMCI 242053Z 07018KT 3SM -RA BR BKN007 BKN034 OVC095 13/12 A2984 RMK AO2 PK WND 07028/2011 SFC VIS 5 SLP101 P0017 60038 T01280117 56039 $
KMCI 242032Z 07013G23KT 2SM R19R/5500VP6000FT +RA BR BKN009 BKN025 OVC050 12/11 A2986 RMK AO2 PK WND 07028/2011 TWR VIS 3 P0011 T01220111 $
KMCI 242025Z 09015G23KT 2SM R19R/5000VP6000FT +RA BR SCT009 BKN027 OVC060 12/11 A2988 RMK AO2 PK WND 07028/2011 TWR VIS 3 P0008 T01220111 $
KMCI 241953Z 07019G28KT 3SM -RA BR SCT009 BKN050 OVC095 13/11 A2987 RMK AO2 PK WND 06030/1915 SFC VIS 4 SLP111 P0006 T01280111 $
KMCI 241853Z 07018G25KT 3SM RA BR SCT009 BKN055 OVC085 13/12 A2991 RMK AO2 SFC VIS 4 SLP124 P0015 T01280117 $
KMCI 241753Z 08010KT 3SM -RA BR FEW006 BKN010 OVC050 13/12 A2996 RMK AO2 TWR VIS 4 SLP142 P0005 60025 T01330117 10139 20122 56015
KMCI 241731Z 06013G19KT 4SM -RA BR SCT006 BKN055 OVC080 13/12 A2996 RMK AO2 P0002 T01330117 $
KMCI 241653Z 07015KT 5SM -RA BR SCT016 BKN060 OVC075 13/12 A2997 RMK AO2 SLP144 P0002 T01330117
KMCI 241553Z 08012G20KT 7SM -RA FEW008 BKN080 OVC095 13/11 A2999 RMK AO2 SLP151 P0002 T01330111
KMCI 241453Z 08011G21KT 9SM -RA FEW008 BKN020 OVC040 13/11 A3001 RMK AO2 RAE26B51 SLP157 P0001 60016 T01330111 58010
KMCI 241408Z 08012KT 8SM -RA SCT008 BKN050 OVC080 13/11 A3003 RMK AO2 P0000 T01280111
KMCI 241353Z 09010KT 4SM -RA BR SCT008 BKN025 OVC032 13/11 A3003 RMK AO2 SLP165 P0014 T01280111
KMCI 241328Z 10011G19KT 4SM RA BR SCT008 BKN025 OVC032 13/11 A3004 RMK AO2 P0008 T01280111
KMCI 241253Z 11012G21KT 5SM -RA BR BKN027 OVC034 13/11 A3004 RMK AO2 SLP170 P0001 T01280106
KMCI 241153Z 09009KT 10SM -RA OVC025 14/09 A3004 RMK AO2 SLP166 P0001 60001 70001 T01440094 10156 20139 56004
KMCI 241053Z 07011KT 10SM -RA OVC029 14/09 A3004 RMK AO2 RAB40 SLP166 P0000 T01390094
KMCI 240953Z 07009KT 10SM OVC029 14/09 A3004 RMK AO2 SLP167 T01440089
KMCI 240946Z 07009KT 10SM OVC029 14/09 A3004 RMK AO2 T01440089
KMCI 240853Z 06009KT 10SM OVC031 14/09 A3005 RMK AO2 SLP169 T01440089 56022